createdAt,value
2023-02-04T02:56:55.732Z,10.98
2023-02-04T03:00:11.928Z,12.65
2023-02-04T03:03:38.780Z,11.00
2023-02-04T03:07:14.638Z,10.63
2023-02-04T03:10:52.279Z,11.55
2023-02-04T03:17:43.110Z,12.45
2023-02-04T03:21:20.896Z,14.07
2023-02-04T03:31:27.654Z,12.95
2023-02-04T03:38:37.944Z,13.18
2023-02-04T03:42:06.744Z,12.20
2023-02-04T03:45:46.007Z,20.20
2023-02-04T03:52:27.597Z,11.78
2023-02-04T03:56:38.791Z,11.83
2023-02-04T04:00:08.462Z,11.15
2023-02-04T04:10:26.043Z,13.60
2023-02-04T04:17:41.870Z,12.13
2023-02-04T04:20:55.560Z,9.63
2023-02-04T04:24:16.572Z,10.25
2023-02-04T04:27:36.296Z,10.32
2023-02-04T04:31:06.715Z,9.45
2023-02-04T04:41:35.693Z,9.45
2023-02-04T04:48:58.144Z,8.50
2023-02-04T04:52:50.385Z,8.45
2023-02-04T04:59:50.701Z,9.15
2023-02-04T05:03:26.993Z,8.85
2023-02-04T05:06:58.469Z,8.88
2023-02-04T05:10:20.683Z,10.55
2023-02-04T05:13:37.186Z,9.40
2023-02-04T05:17:16.326Z,9.75
2023-02-04T05:20:39.526Z,10.75
2023-02-04T05:23:49.744Z,30.17
2023-02-04T05:31:23.989Z,11.70
2023-02-04T05:38:37.674Z,15.25
2023-02-04T05:42:14.022Z,14.50
2023-02-04T05:49:38.864Z,21.30
2023-02-04T05:53:12.500Z,13.25
2023-02-04T05:56:29.058Z,13.88
2023-02-04T06:03:37.726Z,13.53
2023-02-04T06:06:58.454Z,15.30
2023-02-04T06:10:20.571Z,12.82
2023-02-04T06:21:22.176Z,34.45
2023-02-04T06:24:40.090Z,41.48
2023-02-04T06:32:20.107Z,45.50
2023-02-04T06:35:46.570Z,42.93
2023-02-04T06:39:16.196Z,35.25
2023-02-04T06:42:53.695Z,32.45
2023-02-04T06:46:27.374Z,27.10
2023-02-04T06:53:32.878Z,54.58
2023-02-04T06:56:52.874Z,53.05
2023-02-04T07:00:09.277Z,32.98
2023-02-04T07:03:32.047Z,25.10
2023-02-04T07:10:21.333Z,17.23
2023-02-04T07:13:47.574Z,13.20
2023-02-04T07:18:05.854Z,13.15
2023-02-04T07:50:41.070Z,10.30
2023-02-04T07:53:58.416Z,10.82
2023-02-04T07:58:02.305Z,10.53
2023-02-04T08:01:27.980Z,12.68
2023-02-04T08:05:00.925Z,11.38
2023-02-04T08:08:27.218Z,14.85
2023-02-04T08:12:06.503Z,12.60
2023-02-04T08:15:45.468Z,13.62
2023-02-04T08:22:52.042Z,13.62
2023-02-04T08:26:30.872Z,11.93
2023-02-04T08:29:43.082Z,11.03
2023-02-04T08:33:14.271Z,17.57
2023-02-04T08:37:10.348Z,14.35
2023-02-04T08:40:47.555Z,18.32
2023-02-04T08:44:19.840Z,17.52
2023-02-04T08:47:38.774Z,18.17
2023-02-04T08:50:58.383Z,15.90
2023-02-04T08:54:35.081Z,14.13
2023-02-04T08:57:53.748Z,15.53
2023-02-04T09:01:18.948Z,12.78
2023-02-04T09:04:30.252Z,12.05
2023-02-04T09:07:53.119Z,10.72
2023-02-04T09:14:48.142Z,14.13
2023-02-04T09:21:54.544Z,10.13
2023-02-04T09:25:44.333Z,9.55
2023-02-04T09:29:31.084Z,9.18
2023-02-04T09:32:58.513Z,10.90
2023-02-04T09:43:50.405Z,10.55
2023-02-04T09:47:13.320Z,9.08
2023-02-04T09:50:48.927Z,11.80
2023-02-04T09:54:02.407Z,11.38
2023-02-04T10:04:41.628Z,8.60
2023-02-04T10:08:37.013Z,10.50
2023-02-04T10:12:46.156Z,8.75
2023-02-04T10:16:14.518Z,9.35
2023-02-04T10:19:56.838Z,11.93
2023-02-04T10:23:16.892Z,9.63
2023-02-04T10:26:36.372Z,8.13
2023-02-04T10:33:39.681Z,8.23
2023-02-04T10:36:53.805Z,6.83
2023-02-04T10:40:10.843Z,6.83
2023-02-04T10:43:39.183Z,7.92
2023-02-04T10:50:57.228Z,8.53
2023-02-04T11:56:54.457Z,12.93
2023-02-04T12:00:37.133Z,11.80
2023-02-04T12:04:22.250Z,9.58
2023-02-04T12:07:52.073Z,9.35
2023-02-04T12:11:15.607Z,10.60
2023-02-04T12:14:55.869Z,14.95
2023-02-04T12:18:43.192Z,12.20
2023-02-04T12:22:12.450Z,11.43
2023-02-04T12:28:38.605Z,10.58
2023-02-04T12:32:05.267Z,12.05
2023-02-04T12:35:53.972Z,15.93
2023-02-04T12:39:17.861Z,10.78
2023-02-04T12:42:40.768Z,11.88
2023-02-04T12:46:06.733Z,11.25
2023-02-04T12:49:58.077Z,11.22
2023-02-04T12:53:39.330Z,11.38
2023-02-04T12:57:18.085Z,10.17
2023-02-04T13:00:34.941Z,9.35
2023-02-04T13:03:54.576Z,9.13
2023-02-04T13:07:14.270Z,12.43
2023-02-04T13:13:55.038Z,13.10
2023-02-04T13:17:26.938Z,16.10
2023-02-04T13:20:45.384Z,18.32
2023-02-04T13:24:08.269Z,12.28
2023-02-04T13:27:24.809Z,49.58
2023-02-04T13:30:46.180Z,29.75
2023-02-04T13:34:06.582Z,18.57
2023-02-04T13:37:22.341Z,13.28
2023-02-04T13:40:49.828Z,16.82
2023-02-04T13:44:07.143Z,19.27
2023-02-04T13:47:24.997Z,15.13
2023-02-04T13:50:51.957Z,25.20
2023-02-04T13:54:02.090Z,27.98
2023-02-04T13:57:28.518Z,17.40
2023-02-04T14:01:16.451Z,19.80
2023-02-04T14:05:05.999Z,17.40
2023-02-04T14:12:21.807Z,18.85
2023-02-04T14:15:48.048Z,20.08
2023-02-04T14:19:24.340Z,19.70
2023-02-04T14:22:33.949Z,21.45
2023-02-04T14:25:49.047Z,26.20
2023-02-04T14:29:08.403Z,25.97
2023-02-04T14:32:28.290Z,19.77
2023-02-04T14:35:47.774Z,18.30
2023-02-04T14:39:00.620Z,19.87
2023-02-04T14:42:14.926Z,20.30
2023-02-04T14:45:34.108Z,22.55
2023-02-04T14:48:51.037Z,20.15
2023-02-04T14:52:16.149Z,22.00
2023-02-04T14:55:40.510Z,31.30
2023-02-04T14:58:51.935Z,31.12
2023-02-04T15:02:09.987Z,35.63
2023-02-04T15:05:24.735Z,25.57
2023-02-04T15:08:39.606Z,36.50
2023-02-04T15:12:19.163Z,24.30
2023-02-04T15:15:50.110Z,28.87
2023-02-04T15:19:03.602Z,23.12
2023-02-04T15:22:20.661Z,21.95
2023-02-04T15:25:51.808Z,18.70
2023-02-04T15:29:18.867Z,19.37
2023-02-04T15:32:38.238Z,21.05
2023-02-04T15:35:53.707Z,22.17
2023-02-04T15:39:18.832Z,20.48
2023-02-04T15:42:38.616Z,31.33
2023-02-04T15:45:51.688Z,22.25
2023-02-04T15:49:22.079Z,18.67
2023-02-04T15:53:14.489Z,16.87
2023-02-04T15:57:01.950Z,16.23
2023-02-04T16:00:14.877Z,18.40
2023-02-04T16:03:25.037Z,16.05
2023-02-04T16:06:58.482Z,20.92
2023-02-04T16:13:43.028Z,38.75
2023-02-04T16:20:33.338Z,18.20
2023-02-04T16:27:36.275Z,15.88
2023-02-04T16:30:52.531Z,16.93
2023-02-04T16:34:21.273Z,18.80
2023-02-04T16:38:08.439Z,21.60
2023-02-04T16:41:25.934Z,17.05
2023-02-04T16:45:03.019Z,16.52
2023-02-04T16:48:41.622Z,25.00
2023-02-04T20:26:41.374Z,18.85
2023-02-04T20:30:04.407Z,17.37
2023-02-04T20:33:22.367Z,16.70
2023-02-04T20:36:59.562Z,18.07
2023-02-04T20:43:45.400Z,17.48
2023-02-04T20:47:07.721Z,19.23
2023-02-04T20:50:55.609Z,17.12
2023-02-04T20:54:24.712Z,19.48
2023-02-04T20:57:41.946Z,19.57
2023-02-04T21:01:03.473Z,19.00
2023-02-04T21:05:21.938Z,16.52
2023-02-04T21:09:01.965Z,19.20
2023-02-04T21:12:33.194Z,19.20
2023-02-04T21:22:59.481Z,23.40
2023-02-04T21:26:37.299Z,22.30
2023-02-04T21:33:25.152Z,21.57
2023-02-04T21:40:14.855Z,17.45
2023-02-04T21:47:15.014Z,21.73
2023-02-04T21:50:44.129Z,19.70
2023-02-04T21:57:59.525Z,18.85
2023-02-04T22:01:32.273Z,18.10
2023-02-04T22:05:15.577Z,19.05
2023-02-04T22:08:54.384Z,19.42
2023-02-04T22:12:18.985Z,18.10
2023-02-04T22:15:32.574Z,19.15
2023-02-04T22:18:52.497Z,17.95
2023-02-04T22:22:13.566Z,17.98
2023-02-04T22:25:29.020Z,18.12
2023-02-04T22:28:52.749Z,18.60
2023-02-04T22:32:33.782Z,22.25
2023-02-04T22:36:08.115Z,20.50
2023-02-04T22:39:29.946Z,19.50
2023-02-04T22:42:58.622Z,20.95
2023-02-04T22:46:31.143Z,22.77
2023-02-04T22:49:43.933Z,24.40
2023-02-04T22:53:26.449Z,22.98
2023-02-04T22:56:45.046Z,20.97
2023-02-04T23:00:22.662Z,22.70
2023-02-04T23:03:37.036Z,23.55
2023-02-04T23:06:50.799Z,24.00
2023-02-04T23:10:24.202Z,25.27
2023-02-04T23:14:13.440Z,25.68
2023-02-04T23:17:40.030Z,26.95
2023-02-04T23:21:02.677Z,25.32
2023-02-04T23:24:26.530Z,27.35
2023-02-04T23:27:40.554Z,26.20
2023-02-04T23:30:57.669Z,31.07
2023-02-04T23:34:21.290Z,29.30
2023-02-04T23:37:42.126Z,27.17
2023-02-04T23:41:22.447Z,29.27
2023-02-04T23:44:43.027Z,27.85
2023-02-04T23:48:19.141Z,28.02
2023-02-04T23:51:36.894Z,28.75
2023-02-04T23:55:09.630Z,25.00
2023-02-04T23:59:04.051Z,30.43
